createdAt,value
2018-11-12T00:00:58.809Z,98420.41
2018-11-12T00:03:27.513Z,98417.53
2018-11-12T00:05:56.590Z,98414.34
2018-11-12T00:08:25.307Z,98415.39
2018-11-12T00:10:53.928Z,98419.08
2018-11-12T00:13:22.701Z,98418.54
2018-11-12T00:15:51.337Z,98421.86
2018-11-12T00:18:19.938Z,98424.75
2018-11-12T00:20:48.924Z,98426.64
2018-11-12T00:23:17.878Z,98432.94
2018-11-12T00:25:46.666Z,98427.48
2018-11-12T00:28:15.195Z,98430.16
2018-11-12T00:30:44.256Z,98422.80
2018-11-12T00:33:12.941Z,98427.36
2018-11-12T00:35:41.680Z,98424.42
2018-11-12T00:38:10.251Z,98424.69
2018-11-12T00:40:38.906Z,98429.67
2018-11-12T00:43:07.753Z,98423.53
2018-11-12T00:45:36.327Z,98425.34
2018-11-12T00:48:05.951Z,98422.56
2018-11-12T00:50:34.561Z,98428.31
2018-11-12T00:53:03.168Z,98429.27
2018-11-12T00:55:31.706Z,98423.74
2018-11-12T00:58:00.291Z,98431.18
2018-11-12T01:00:29.684Z,98422.84
2018-11-12T01:02:58.869Z,98425.86
2018-11-12T01:05:28.007Z,98428.87
2018-11-12T01:07:56.549Z,98420.84
2018-11-12T01:10:25.790Z,98416.25
2018-11-12T01:12:55.662Z,98419.16
2018-11-12T01:15:24.192Z,98421.20
2018-11-12T01:17:52.845Z,98422.03
2018-11-12T01:20:21.437Z,98429.27
2018-11-12T01:22:49.955Z,98425.03
2018-11-12T01:25:19.266Z,98419.12
2018-11-12T01:27:48.374Z,98424.47
2018-11-12T01:30:18.239Z,98420.20
2018-11-12T01:32:47.914Z,98424.57
2018-11-12T01:35:17.448Z,98423.16
2018-11-12T01:37:46.370Z,98423.16
2018-11-12T01:40:16.086Z,98430.56
2018-11-12T01:42:44.890Z,98426.13
2018-11-12T01:45:16.076Z,98417.02
2018-11-12T01:47:45.849Z,98415.13
2018-11-12T01:50:15.299Z,98417.05
2018-11-12T01:52:44.599Z,98414.50
2018-11-12T01:55:14.310Z,98404.16
2018-11-12T01:57:43.315Z,98412.22
2018-11-12T02:00:16.648Z,98415.89
2018-11-12T02:02:46.527Z,98415.83
2018-11-12T02:05:15.298Z,98402.83
2018-11-12T02:07:43.849Z,98402.34
2018-11-12T02:10:13.427Z,98401.80
2018-11-12T02:12:42.390Z,98406.19
2018-11-12T02:15:13.524Z,98404.28
2018-11-12T02:17:42.834Z,98396.17
2018-11-12T02:20:13.137Z,98401.86
2018-11-12T02:22:43.257Z,98398.63
2018-11-12T02:25:12.661Z,98391.95
2018-11-12T02:27:41.806Z,98388.30
2018-11-12T02:30:15.784Z,98390.17
2018-11-12T02:32:44.366Z,98379.86
2018-11-12T02:35:15.145Z,98373.02
2018-11-12T02:37:43.956Z,98369.19
2018-11-12T02:40:13.259Z,98376.36
2018-11-12T02:42:42.525Z,98375.03
2018-11-12T02:45:12.575Z,98375.63
2018-11-12T02:47:42.083Z,98382.96
2018-11-12T02:50:12.994Z,98387.95
2018-11-12T02:52:41.976Z,98381.10
2018-11-12T02:55:12.291Z,98385.53
2018-11-12T02:57:41.770Z,98386.94
2018-11-12T03:00:16.445Z,98375.20
2018-11-12T03:02:45.293Z,98371.77
2018-11-12T03:05:14.478Z,98370.45
2018-11-12T03:07:43.573Z,98364.83
2018-11-12T03:10:16.268Z,98363.70
2018-11-12T03:12:45.438Z,98365.69
2018-11-12T03:15:14.954Z,98361.36
2018-11-12T03:17:44.727Z,98356.45
2018-11-12T03:20:14.694Z,98356.69
2018-11-12T03:22:43.272Z,98360.07
2018-11-12T03:25:14.000Z,98357.61
2018-11-12T03:27:43.820Z,98355.18
2018-11-12T03:30:13.816Z,98359.52
2018-11-12T03:32:42.759Z,98356.13
2018-11-12T03:35:12.220Z,98361.56
2018-11-12T03:37:42.189Z,98358.17
2018-11-12T03:40:15.429Z,98352.38
2018-11-12T03:42:44.837Z,98351.20
2018-11-12T03:45:20.983Z,98356.69
2018-11-12T03:47:50.283Z,98365.61
2018-11-12T03:50:20.256Z,98367.97
2018-11-12T03:52:48.804Z,98368.48
2018-11-12T03:55:18.729Z,98364.34
2018-11-12T03:57:47.378Z,98370.19
2018-11-12T04:00:20.407Z,98371.97
2018-11-12T04:02:49.139Z,98377.11
2018-11-12T04:05:17.763Z,98383.91
2018-11-12T04:07:46.626Z,98384.38
2018-11-12T04:10:17.072Z,98387.79
2018-11-12T04:12:45.876Z,98386.74
2018-11-12T04:15:29.127Z,98378.19
2018-11-12T04:18:01.892Z,98385.61
2018-11-12T04:20:34.463Z,98385.72
2018-11-12T04:23:09.482Z,98378.19
2018-11-12T04:25:39.848Z,98376.03
2018-11-12T04:28:08.741Z,98377.78
2018-11-12T04:30:37.330Z,98379.50
2018-11-12T04:33:06.264Z,98376.97
2018-11-12T04:35:35.477Z,98374.02
2018-11-12T04:38:03.982Z,98368.01
2018-11-12T04:40:33.189Z,98370.16
2018-11-12T04:43:02.231Z,98361.66
2018-11-12T04:45:30.803Z,98374.28
2018-11-12T04:47:59.583Z,98374.68
2018-11-12T04:50:28.739Z,98373.74
2018-11-12T04:52:57.420Z,98365.26
2018-11-12T04:55:26.590Z,98375.97
2018-11-12T04:57:55.145Z,98378.72
2018-11-12T05:00:24.929Z,98379.62
2018-11-12T05:02:53.419Z,98377.08
2018-11-12T05:05:23.166Z,98378.80
2018-11-12T05:07:51.819Z,98381.23
2018-11-12T05:10:21.689Z,98387.94
2018-11-12T05:12:51.372Z,98384.22
2018-11-12T05:15:20.994Z,98376.44
2018-11-12T05:17:49.473Z,98373.97
2018-11-12T05:20:20.556Z,98370.84
2018-11-12T05:22:49.926Z,98360.77
2018-11-12T05:25:18.872Z,98358.05
2018-11-12T05:27:48.117Z,98353.16
2018-11-12T05:30:18.827Z,98355.63
2018-11-12T05:32:47.413Z,98352.00
2018-11-12T05:35:17.653Z,98345.31
2018-11-12T05:37:46.494Z,98339.50
2018-11-12T05:40:19.767Z,98339.48
2018-11-12T05:42:48.449Z,98338.04
2018-11-12T05:45:18.146Z,98338.80
2018-11-12T05:47:46.755Z,98341.01
2018-11-12T05:50:17.288Z,98339.51
2018-11-12T05:52:47.139Z,98337.41
2018-11-12T05:55:17.856Z,98347.20
2018-11-12T05:57:47.428Z,98354.13
2018-11-12T06:00:20.370Z,98353.77
2018-11-12T06:02:48.955Z,98351.86
2018-11-12T06:05:19.677Z,98357.63
2018-11-12T06:07:48.181Z,98353.13
2018-11-12T06:10:18.790Z,98355.30
2018-11-12T06:12:47.399Z,98364.34
2018-11-12T06:15:16.437Z,98366.05
2018-11-12T06:17:45.855Z,98369.89
2018-11-12T06:20:17.724Z,98361.81
2018-11-12T06:22:47.483Z,98367.14
2018-11-12T06:25:17.537Z,98371.97
2018-11-12T06:27:47.617Z,98375.81
2018-11-12T06:30:17.451Z,98374.89
2018-11-12T06:32:46.777Z,98363.94
2018-11-12T06:35:15.928Z,98365.20
2018-11-12T06:37:45.302Z,98370.05
2018-11-12T06:40:22.782Z,98375.25
2018-11-12T06:42:51.553Z,98375.36
2018-11-12T06:45:22.433Z,98383.73
2018-11-12T06:47:51.841Z,98382.06
2018-11-12T06:50:25.044Z,98382.14
2018-11-12T06:52:53.637Z,98376.70
2018-11-12T06:55:23.145Z,98384.02
2018-11-12T06:57:52.195Z,98386.00
2018-11-12T07:00:26.050Z,98381.39
2018-11-12T07:02:55.154Z,98395.11
2018-11-12T07:05:24.042Z,98387.05
2018-11-12T07:07:52.690Z,98398.03
2018-11-12T07:10:22.891Z,98404.34
2018-11-12T07:12:52.438Z,98396.72
2018-11-12T07:15:22.046Z,98403.92
2018-11-12T07:17:50.951Z,98395.94
2018-11-12T07:20:21.783Z,98403.80
2018-11-12T07:22:51.700Z,98404.44
2018-11-12T07:25:21.841Z,98401.84
2018-11-12T07:27:50.453Z,98413.88
2018-11-12T07:30:23.034Z,98413.15
2018-11-12T07:32:53.974Z,98414.01
2018-11-12T07:35:23.823Z,98421.89
2018-11-12T07:37:54.687Z,98425.77
2018-11-12T07:40:24.380Z,98421.02
2018-11-12T07:42:53.298Z,98427.02
2018-11-12T07:45:25.038Z,98420.53
2018-11-12T07:47:59.765Z,98430.41
2018-11-12T07:50:31.419Z,98428.58
2018-11-12T07:53:00.592Z,98422.55
2018-11-12T07:55:30.385Z,98423.44
2018-11-12T07:58:00.219Z,98422.93
2018-11-12T08:00:32.413Z,98420.89
2018-11-12T08:03:04.854Z,98421.53
2018-11-12T08:05:34.410Z,98418.77
2018-11-12T08:08:03.706Z,98422.70
2018-11-12T08:10:32.544Z,98418.23
2018-11-12T08:13:01.828Z,98420.67
2018-11-12T08:15:30.438Z,98423.25
2018-11-12T08:18:00.318Z,98423.20
2018-11-12T08:20:29.416Z,98423.60
2018-11-12T08:22:58.787Z,98430.34
2018-11-12T08:25:27.797Z,98434.16
2018-11-12T08:27:56.627Z,98429.56
2018-11-12T08:30:27.101Z,98435.84
2018-11-12T08:32:57.620Z,98435.33
2018-11-12T08:35:27.378Z,98433.27
2018-11-12T08:37:57.830Z,98429.33
2018-11-12T08:40:28.344Z,98439.47
2018-11-12T08:42:57.326Z,98436.74
2018-11-12T08:45:26.263Z,98430.42
2018-11-12T08:47:55.879Z,98431.83
2018-11-12T08:50:25.918Z,98436.67
2018-11-12T08:52:55.956Z,98426.52
2018-11-12T08:55:26.196Z,98430.27
2018-11-12T08:57:56.869Z,98429.58
2018-11-12T09:00:26.710Z,98429.86
2018-11-12T09:02:57.012Z,98420.91
2018-11-12T09:05:26.905Z,98434.80
2018-11-12T09:08:01.055Z,98428.32
2018-11-12T09:10:32.142Z,98430.80
2018-11-12T09:13:01.233Z,98426.35
2018-11-12T09:15:31.437Z,98433.55
2018-11-12T09:18:00.679Z,98434.98
2018-11-12T09:20:29.780Z,98430.20
2018-11-12T09:23:01.801Z,98439.14
2018-11-12T09:25:30.594Z,98443.58
2018-11-12T09:28:04.849Z,98454.70
2018-11-12T09:30:37.465Z,98457.44
2018-11-12T09:33:09.708Z,98469.09
2018-11-12T09:35:38.829Z,98465.84
2018-11-12T09:38:07.396Z,98466.27
2018-11-12T09:40:37.367Z,98462.36
2018-11-12T09:43:06.305Z,98461.09
2018-11-12T09:45:35.368Z,98458.85
2018-11-12T09:48:04.160Z,98470.69
2018-11-12T09:50:33.406Z,98473.34
2018-11-12T09:53:03.291Z,98463.58
2018-11-12T09:55:33.509Z,98469.44
2018-11-12T09:58:03.623Z,98474.45
2018-11-12T10:00:33.265Z,98479.59
2018-11-12T10:03:02.487Z,98477.81
2018-11-12T10:05:32.687Z,98475.31
2018-11-12T10:08:10.637Z,98474.73
2018-11-12T10:10:43.008Z,98480.58
2018-11-12T10:13:13.588Z,98486.52
2018-11-12T10:15:43.519Z,98496.00
2018-11-12T10:20:38.545Z,98487.09
2018-11-12T10:23:07.478Z,98494.77
2018-11-12T10:25:36.309Z,98491.92
2018-11-12T10:28:05.868Z,98490.14
2018-11-12T10:30:35.381Z,98491.23
2018-11-12T10:33:05.114Z,98495.52
2018-11-12T10:35:33.814Z,98497.33
2018-11-12T10:38:03.571Z,98503.94
2018-11-12T10:40:33.410Z,98503.52
2018-11-12T10:43:03.388Z,98505.34
2018-11-12T10:45:33.262Z,98515.16
2018-11-12T10:48:03.001Z,98508.66
2018-11-12T10:50:32.394Z,98500.02
2018-11-12T10:53:00.983Z,98492.81
2018-11-12T10:55:32.731Z,98492.41
2018-11-12T10:58:05.352Z,98490.42
2018-11-12T11:01:44.758Z,98491.69
2018-11-12T11:04:23.584Z,98495.83
2018-11-12T11:06:52.391Z,98495.23
2018-11-12T11:09:24.631Z,98497.64
2018-11-12T11:11:56.653Z,98498.19
2018-11-12T11:14:29.003Z,98495.59
2018-11-12T11:16:59.838Z,98494.97
2018-11-12T11:19:32.008Z,98498.90
2018-11-12T11:22:02.078Z,98492.78
2018-11-12T11:24:31.867Z,98491.92
2018-11-12T11:27:02.686Z,98483.91
2018-11-12T11:29:32.669Z,98488.12
2018-11-12T11:32:02.598Z,98490.31
2018-11-12T11:34:32.148Z,98499.19
2018-11-12T11:37:01.741Z,98487.23
2018-11-12T11:39:31.290Z,98484.32
2018-11-12T11:42:00.860Z,98485.86
2018-11-12T11:44:30.623Z,98483.19
2018-11-12T11:47:00.226Z,98490.30
2018-11-12T11:49:30.201Z,98486.53
2018-11-12T11:52:01.296Z,98500.37
2018-11-12T11:54:32.704Z,98495.27
2018-11-12T12:09:49.776Z,98508.73
2018-11-12T12:12:19.378Z,98512.27
2018-11-12T12:14:48.178Z,98514.45
2018-11-12T12:17:17.123Z,98516.37
2018-11-12T12:19:45.866Z,98512.33
2018-11-12T12:22:14.711Z,98501.72
2018-11-12T12:24:43.956Z,98494.66
2018-11-12T12:27:12.378Z,98496.23
2018-11-12T12:29:41.299Z,98503.77
2018-11-12T12:32:09.844Z,98497.27
2018-11-12T12:34:38.880Z,98498.87
2018-11-12T12:37:07.919Z,98506.55
2018-11-12T12:39:36.469Z,98503.25
2018-11-12T12:42:09.376Z,98511.84
2018-11-12T12:44:38.954Z,98501.48
2018-11-12T12:47:07.898Z,98506.81
2018-11-12T12:49:37.413Z,98502.58
2018-11-12T12:52:07.368Z,98496.31
2018-11-12T12:54:36.649Z,98500.62
2018-11-12T12:57:05.296Z,98500.92
2018-11-12T12:59:33.863Z,98496.64
2018-11-12T13:02:02.426Z,98492.64
2018-11-12T13:04:31.104Z,98496.41
2018-11-12T13:06:59.691Z,98489.42
2018-11-12T13:09:28.309Z,98494.19
2018-11-12T13:11:58.806Z,98494.91
2018-11-12T13:14:27.400Z,98501.09
2018-11-12T13:24:00.032Z,98488.12
2018-11-12T13:26:30.482Z,98496.61
2018-11-12T13:28:59.065Z,98496.85
2018-11-12T13:31:27.541Z,98497.06
2018-11-12T13:33:56.228Z,98490.89
2018-11-12T13:36:24.849Z,98488.70
2018-11-12T13:38:53.705Z,98493.66
2018-11-12T13:41:22.532Z,98500.66
2018-11-12T13:43:51.556Z,98494.59
2018-11-12T13:46:21.493Z,98491.58
2018-11-12T13:48:50.686Z,98491.59
2018-11-12T13:51:19.336Z,98489.63
2018-11-12T13:53:48.110Z,98484.64
2018-11-12T13:56:16.615Z,98486.73
2018-11-12T13:58:45.546Z,98480.20
2018-11-12T14:01:14.086Z,98483.41
2018-11-12T14:03:42.696Z,98488.00
2018-11-12T14:06:12.206Z,98491.62
2018-11-12T14:08:40.845Z,98484.58
2018-11-12T14:11:09.548Z,98491.69
2018-11-12T14:13:38.198Z,98489.72
2018-11-12T14:16:07.175Z,98493.36
2018-11-12T14:18:35.834Z,98489.29
2018-11-12T14:21:05.061Z,98492.20
2018-11-12T14:23:33.908Z,98489.73
2018-11-12T14:26:02.844Z,98496.27
2018-11-12T14:28:32.692Z,98503.02
2018-11-12T14:31:01.079Z,98493.41
2018-11-12T14:33:29.656Z,98487.98
2018-11-12T14:35:59.056Z,98494.71
2018-11-12T14:38:27.623Z,98485.45
2018-11-12T14:40:56.213Z,98491.09
2018-11-12T14:43:25.008Z,98497.84
2018-11-12T14:45:53.572Z,98497.11
2018-11-12T14:48:22.170Z,98500.13
2018-11-12T14:50:50.681Z,98501.11
2018-11-12T14:53:19.219Z,98497.14
2018-11-12T14:55:47.822Z,98500.38
2018-11-12T14:58:16.415Z,98505.63
2018-11-12T15:00:47.216Z,98503.18
2018-11-12T15:03:15.890Z,98506.67
2018-11-12T15:05:44.638Z,98500.89
2018-11-12T15:08:13.137Z,98505.63
2018-11-12T15:10:41.830Z,98503.10
2018-11-12T15:13:10.405Z,98506.70
2018-11-12T15:15:39.133Z,98511.64
2018-11-12T15:18:07.737Z,98507.55
2018-11-12T15:20:36.373Z,98506.66
2018-11-12T15:23:08.976Z,98506.73
2018-11-12T15:25:37.684Z,98515.30
2018-11-12T15:28:06.415Z,98515.10
2018-11-12T15:30:35.558Z,98515.88
2018-11-12T15:33:04.633Z,98529.17
2018-11-12T15:35:33.679Z,98527.55
2018-11-12T15:38:02.338Z,98534.12
2018-11-12T15:40:31.462Z,98541.96
2018-11-12T15:43:00.755Z,98534.97
2018-11-12T15:45:30.172Z,98539.98
2018-11-12T15:47:59.918Z,98545.91
2018-11-12T15:50:30.387Z,98547.41
2018-11-12T15:52:59.209Z,98552.45
2018-11-12T15:55:28.250Z,98558.47
2018-11-12T15:57:57.381Z,98559.38
2018-11-12T16:00:26.125Z,98568.61
2018-11-12T16:02:56.558Z,98570.23
2018-11-12T16:05:25.870Z,98569.19
2018-11-12T16:07:56.924Z,98573.73
2018-11-12T16:10:25.995Z,98574.07
2018-11-12T16:12:55.170Z,98580.29
2018-11-12T16:15:24.599Z,98578.29
2018-11-12T16:17:53.877Z,98583.33
2018-11-12T16:20:25.865Z,98592.71
2018-11-12T16:22:56.276Z,98590.89
2018-11-12T16:25:25.947Z,98595.59
2018-11-12T16:27:55.512Z,98594.48
2018-11-12T16:30:25.012Z,98601.31
2018-11-12T16:32:54.055Z,98603.48
2018-11-12T16:35:24.688Z,98609.34
2018-11-12T16:37:54.586Z,98608.45
2018-11-12T16:40:29.588Z,98613.04
2018-11-12T16:42:59.240Z,98617.33
2018-11-12T16:45:28.624Z,98617.24
2018-11-12T16:47:57.877Z,98630.19
2018-11-12T16:50:26.709Z,98635.50
2018-11-12T16:52:55.985Z,98637.47
2018-11-12T16:55:24.691Z,98637.86
2018-11-12T16:57:53.486Z,98644.16
2018-11-12T17:00:23.317Z,98642.48
2018-11-12T17:02:52.326Z,98642.14
2018-11-12T17:05:23.248Z,98643.98
2018-11-12T17:07:52.368Z,98652.84
2018-11-12T17:10:22.605Z,98653.27
2018-11-12T17:12:51.546Z,98656.83
2018-11-12T17:15:20.221Z,98653.05
2018-11-12T17:17:49.398Z,98654.16
2018-11-12T17:20:19.796Z,98648.45
2018-11-12T17:22:50.289Z,98648.23
2018-11-12T17:25:19.420Z,98645.96
2018-11-12T17:27:49.834Z,98646.31
2018-11-12T17:30:22.835Z,98648.38
2018-11-12T17:32:52.150Z,98639.77
2018-11-12T17:35:21.936Z,98637.19
2018-11-12T17:37:50.514Z,98633.09
2018-11-12T17:40:21.611Z,98647.62
2018-11-12T17:42:51.236Z,98638.50
2018-11-12T17:45:23.026Z,98648.78
2018-11-12T17:47:52.753Z,98655.05
2018-11-12T17:50:21.504Z,98655.56
2018-11-12T17:52:50.312Z,98661.05
2018-11-12T17:55:20.239Z,98662.59
2018-11-12T17:57:50.296Z,98671.72
2018-11-12T18:00:27.446Z,98671.20
2018-11-12T18:02:56.827Z,98677.22
2018-11-12T18:05:25.478Z,98676.06
2018-11-12T18:07:54.133Z,98673.48
2018-11-12T18:10:22.880Z,98679.02
2018-11-12T18:12:51.531Z,98677.94
2018-11-12T18:15:21.595Z,98678.16
2018-11-12T18:17:51.930Z,98682.05
2018-11-12T18:20:23.954Z,98680.81
2018-11-12T18:22:53.591Z,98682.56
2018-11-12T18:25:22.119Z,98685.61
2018-11-12T18:27:51.421Z,98681.75
2018-11-12T18:30:21.721Z,98685.61
2018-11-12T18:32:51.896Z,98693.46
2018-11-12T18:35:21.355Z,98692.60
2018-11-12T18:37:50.290Z,98701.17
2018-11-12T18:40:20.473Z,98700.43
2018-11-12T18:42:50.906Z,98701.92
2018-11-12T18:45:21.503Z,98703.77
2018-11-12T18:47:50.168Z,98699.48
2018-11-12T18:50:27.650Z,98706.67
2018-11-12T18:52:57.070Z,98702.77
2018-11-12T18:55:26.659Z,98706.18
2018-11-12T18:57:55.681Z,98704.92
2018-11-12T19:00:25.528Z,98712.43
2018-11-12T19:02:55.054Z,98707.94
2018-11-12T19:05:25.089Z,98715.36
2018-11-12T19:07:54.805Z,98717.58
2018-11-12T19:10:24.789Z,98717.74
2018-11-12T19:12:53.635Z,98712.08
2018-11-12T19:15:23.952Z,98723.09
2018-11-12T19:17:56.965Z,98722.23
2018-11-12T19:20:26.096Z,98718.13
2018-11-12T19:22:54.937Z,98722.94
2018-11-12T19:25:23.627Z,98729.45
2018-11-12T19:27:52.392Z,98734.26
2018-11-12T19:30:24.099Z,98734.22
2018-11-12T19:32:53.639Z,98734.51
2018-11-12T19:35:24.259Z,98736.82
2018-11-12T19:37:52.807Z,98740.73
2018-11-12T19:40:22.776Z,98740.61
2018-11-12T19:42:52.506Z,98735.30
2018-11-12T19:45:21.526Z,98730.05
2018-11-12T19:47:51.464Z,98737.72
2018-11-12T19:50:22.204Z,98731.28
2018-11-12T19:52:52.549Z,98729.17
2018-11-12T19:55:21.128Z,98729.80
2018-11-12T19:57:49.819Z,98728.02
2018-11-12T20:00:21.180Z,98730.56
2018-11-12T20:02:50.900Z,98733.84
2018-11-12T20:05:19.612Z,98734.62
2018-11-12T20:07:49.039Z,98725.95
2018-11-12T20:10:18.861Z,98733.83
2018-11-12T20:12:47.482Z,98732.26
2018-11-12T20:15:17.394Z,98741.73
2018-11-12T20:17:47.003Z,98745.44
2018-11-12T20:20:18.663Z,98738.45
2018-11-12T20:22:48.133Z,98737.20
2018-11-12T20:25:17.644Z,98745.44
2018-11-12T20:27:46.737Z,98743.14
2018-11-12T20:30:21.906Z,98744.46
2018-11-12T20:32:50.529Z,98737.45
2018-11-12T20:35:22.008Z,98744.84
2018-11-12T20:37:50.702Z,98741.66
2018-11-12T20:40:19.346Z,98739.05
2018-11-12T20:42:48.701Z,98743.14
2018-11-12T20:45:18.960Z,98739.38
2018-11-12T20:47:49.665Z,98740.75
2018-11-12T20:50:18.661Z,98740.97
2018-11-12T20:52:48.132Z,98742.33
2018-11-12T20:55:17.567Z,98746.45
2018-11-12T20:57:47.266Z,98746.02
2018-11-12T21:00:21.356Z,98748.91
2018-11-12T21:02:51.202Z,98752.95
2018-11-12T21:05:21.202Z,98754.75
2018-11-12T21:07:49.820Z,98746.13
2018-11-12T21:10:19.288Z,98746.52
2018-11-12T21:12:48.406Z,98747.56
2018-11-12T21:15:18.184Z,98743.27
2018-11-12T21:17:47.860Z,98743.66
2018-11-12T21:20:19.068Z,98744.64
2018-11-12T21:22:48.436Z,98749.08
2018-11-12T21:25:18.603Z,98749.40
2018-11-12T21:27:50.005Z,98746.75
2018-11-12T21:30:22.033Z,98757.36
2018-11-12T21:32:50.676Z,98750.77
2018-11-12T21:35:21.864Z,98756.55
2018-11-12T21:37:51.984Z,98754.70
2018-11-12T21:40:24.684Z,98750.58
2018-11-12T21:42:54.043Z,98751.59
2018-11-12T21:45:24.786Z,98749.91
2018-11-12T21:47:54.229Z,98753.17
2018-11-12T21:50:24.242Z,98759.06
2018-11-12T21:52:53.835Z,98752.90
2018-11-12T21:55:22.536Z,98757.66
2018-11-12T21:57:51.040Z,98762.19
2018-11-12T22:00:22.415Z,98763.75
2018-11-12T22:02:53.731Z,98767.13
2018-11-12T22:05:22.648Z,98763.92
2018-11-12T22:07:51.699Z,98769.91
2018-11-12T22:10:20.870Z,98762.26
2018-11-12T22:12:50.946Z,98763.47
2018-11-12T22:15:19.800Z,98768.47
2018-11-12T22:17:48.916Z,98767.45
2018-11-12T22:20:21.057Z,98768.35
2018-11-12T22:22:49.899Z,98768.47
2018-11-12T22:25:21.218Z,98767.96
2018-11-12T22:27:53.310Z,98773.93
2018-11-12T22:30:23.318Z,98763.04
2018-11-12T22:32:53.836Z,98763.12
2018-11-12T22:35:22.729Z,98762.30
2018-11-12T22:37:51.575Z,98767.03
2018-11-12T22:40:21.267Z,98771.86
2018-11-12T22:42:55.759Z,98768.35
2018-11-12T22:45:25.553Z,98762.58
2018-11-12T22:47:54.834Z,98774.13
2018-11-12T22:50:23.422Z,98768.34
2018-11-12T22:52:54.317Z,98765.41
2018-11-12T22:58:15.459Z,98757.60
2018-11-12T23:00:44.936Z,98762.77
2018-11-12T23:03:15.399Z,98758.82
2018-11-12T23:05:44.258Z,98753.80
2018-11-12T23:08:19.725Z,98756.99
2018-11-12T23:10:49.359Z,98757.78
2018-11-12T23:13:18.088Z,98763.66
2018-11-12T23:15:46.905Z,98767.07
2018-11-12T23:18:15.573Z,98770.16
2018-11-12T23:20:44.315Z,98767.64
2018-11-12T23:23:12.933Z,98765.64
2018-11-12T23:25:41.449Z,98756.42
2018-11-12T23:28:10.070Z,98762.55
2018-11-12T23:30:38.630Z,98763.63
2018-11-12T23:33:07.175Z,98763.34
2018-11-12T23:35:35.716Z,98761.39
2018-11-12T23:38:04.299Z,98762.19
2018-11-12T23:40:32.869Z,98763.91
2018-11-12T23:43:01.377Z,98767.06
2018-11-12T23:45:30.256Z,98762.12
2018-11-12T23:47:58.929Z,98767.75
2018-11-12T23:50:27.375Z,98763.27
2018-11-12T23:52:56.520Z,98768.50
2018-11-12T23:55:25.155Z,98763.34
2018-11-12T23:57:53.923Z,98766.82
